createdAt,value
2018-12-24T00:00:38.703Z,13.20
2018-12-24T00:03:07.454Z,17.30
2018-12-24T00:05:36.572Z,13.37
2018-12-24T00:08:05.394Z,11.43
2018-12-24T00:10:34.114Z,10.10
2018-12-24T00:13:02.904Z,12.60
2018-12-24T00:15:31.593Z,8.20
2018-12-24T00:18:00.314Z,10.13
2018-12-24T00:20:29.166Z,10.10
2018-12-24T00:22:57.878Z,11.20
2018-12-24T00:25:26.973Z,9.23
2018-12-24T00:27:56.133Z,12.40
2018-12-24T00:30:24.862Z,12.63
2018-12-24T00:32:53.779Z,13.83
2018-12-24T00:35:22.906Z,8.90
2018-12-24T00:37:51.919Z,13.23
2018-12-24T00:40:21.096Z,10.87
2018-12-24T00:42:49.877Z,8.33
2018-12-24T00:45:19.014Z,9.60
2018-12-24T00:47:47.799Z,6.67
2018-12-24T00:50:16.878Z,8.60
2018-12-24T00:52:46.091Z,10.77
2018-12-24T00:55:14.760Z,15.00
2018-12-24T00:57:43.517Z,9.60
2018-12-24T01:00:12.233Z,9.57
2018-12-24T01:02:41.032Z,9.63
2018-12-24T01:05:09.706Z,11.67
2018-12-24T01:07:38.461Z,8.70
2018-12-24T01:10:07.350Z,10.30
2018-12-24T01:12:36.054Z,8.13
2018-12-24T01:15:05.642Z,8.53
2018-12-24T01:17:34.329Z,7.90
2018-12-24T01:20:03.317Z,8.40
2018-12-24T01:22:32.109Z,8.07
2018-12-24T01:25:00.837Z,11.20
2018-12-24T01:27:29.576Z,11.40
2018-12-24T01:29:58.360Z,11.00
2018-12-24T01:32:27.387Z,8.63
2018-12-24T01:34:56.103Z,9.27
2018-12-24T01:37:25.154Z,12.30
2018-12-24T01:39:53.867Z,10.03
2018-12-24T01:42:22.641Z,12.87
2018-12-24T01:44:51.345Z,13.07
2018-12-24T01:47:20.174Z,16.33
2018-12-24T01:49:50.020Z,12.80
2018-12-24T01:52:19.005Z,12.27
2018-12-24T01:54:48.112Z,13.90
2018-12-24T01:57:16.897Z,16.23
2018-12-24T01:59:45.686Z,12.90
2018-12-24T02:02:14.574Z,18.00
2018-12-24T02:04:43.546Z,17.37
2018-12-24T02:07:12.248Z,16.70
2018-12-24T02:09:40.959Z,16.40
2018-12-24T02:12:09.681Z,14.93
2018-12-24T02:14:38.406Z,18.43
2018-12-24T02:17:07.152Z,16.33
2018-12-24T02:19:35.917Z,16.93
2018-12-24T02:22:12.617Z,15.90
2018-12-24T02:24:35.052Z,14.73
2018-12-24T02:27:03.874Z,14.97
2018-12-24T02:29:32.527Z,16.70
2018-12-24T02:32:01.309Z,16.03
2018-12-24T02:34:30.190Z,19.13
2018-12-24T02:36:58.979Z,13.80
2018-12-24T02:39:27.772Z,18.30
2018-12-24T02:41:56.478Z,16.90
2018-12-24T02:44:25.707Z,15.13
2018-12-24T02:46:54.439Z,16.27
2018-12-24T02:49:23.526Z,16.30
2018-12-24T02:51:52.724Z,13.33
2018-12-24T02:54:21.876Z,18.10
2018-12-24T02:56:50.567Z,15.90
2018-12-24T02:59:19.392Z,15.50
2018-12-24T03:01:48.102Z,15.00
2018-12-24T03:04:16.809Z,16.43
2018-12-24T03:06:45.693Z,12.10
2018-12-24T03:09:14.347Z,12.20
2018-12-24T03:11:43.166Z,11.67
2018-12-24T03:14:13.183Z,15.90
2018-12-24T03:16:41.899Z,15.57
2018-12-24T03:19:10.708Z,12.07
2018-12-24T03:21:39.441Z,11.97
2018-12-24T03:24:08.218Z,10.40
2018-12-24T03:26:36.968Z,12.80
2018-12-24T03:29:05.994Z,13.70
2018-12-24T03:31:34.719Z,10.60
2018-12-24T03:34:03.403Z,9.70
2018-12-24T03:36:32.115Z,10.27
2018-12-24T03:39:02.056Z,10.87
2018-12-24T03:41:30.890Z,11.23
2018-12-24T03:43:59.603Z,11.43
2018-12-24T03:46:28.692Z,9.07
2018-12-24T03:48:57.383Z,10.63
2018-12-24T03:51:26.098Z,10.50
2018-12-24T03:53:54.800Z,10.30
2018-12-24T03:56:23.985Z,12.40
2018-12-24T03:58:52.670Z,10.37
2018-12-24T04:01:21.457Z,12.53
2018-12-24T04:03:50.198Z,13.90
2018-12-24T04:06:18.987Z,10.73
2018-12-24T04:08:47.699Z,11.93
2018-12-24T04:11:16.459Z,13.50
2018-12-24T04:13:45.243Z,11.83
2018-12-24T04:16:13.933Z,12.10
2018-12-24T04:18:42.718Z,11.20
2018-12-24T04:21:11.413Z,10.67
2018-12-24T04:23:40.189Z,13.40
2018-12-24T04:26:08.977Z,12.57
2018-12-24T04:28:37.802Z,11.80
2018-12-24T04:31:06.897Z,16.43
2018-12-24T04:33:35.571Z,12.17
2018-12-24T04:36:05.602Z,14.83
2018-12-24T04:38:34.337Z,10.60
2018-12-24T04:41:03.091Z,16.40
2018-12-24T04:43:32.632Z,14.50
2018-12-24T04:46:01.828Z,11.67
2018-12-24T04:48:30.969Z,15.07
2018-12-24T04:50:59.750Z,13.60
2018-12-24T04:53:28.438Z,14.93
2018-12-24T04:55:57.129Z,15.80
2018-12-24T04:58:26.008Z,12.63
2018-12-24T05:00:54.854Z,15.57
2018-12-24T05:03:23.743Z,17.20
2018-12-24T05:05:52.490Z,19.90
2018-12-24T05:08:21.365Z,15.63
2018-12-24T05:10:50.144Z,13.73
2018-12-24T05:13:19.199Z,18.63
2018-12-24T05:15:48.291Z,14.80
2018-12-24T05:18:17.120Z,14.50
2018-12-24T05:20:46.315Z,15.30
2018-12-24T05:23:15.067Z,16.97
2018-12-24T05:25:43.849Z,16.40
2018-12-24T05:28:12.634Z,21.83
2018-12-24T05:30:41.336Z,14.67
2018-12-24T05:33:10.250Z,14.73
2018-12-24T05:35:39.241Z,15.23
2018-12-24T05:38:08.027Z,14.57
2018-12-24T05:40:36.694Z,17.40
2018-12-24T05:43:05.870Z,19.93
2018-12-24T05:45:34.652Z,15.70
2018-12-24T05:48:03.354Z,15.40
2018-12-24T05:50:32.269Z,16.90
2018-12-24T05:53:00.927Z,20.10
2018-12-24T05:55:30.107Z,19.00
2018-12-24T05:57:58.833Z,17.30
2018-12-24T06:00:27.589Z,18.80
2018-12-24T06:02:56.406Z,19.93
2018-12-24T06:05:25.193Z,24.87
2018-12-24T06:07:53.910Z,18.07
2018-12-24T06:10:22.665Z,19.50
2018-12-24T06:12:52.401Z,17.90
2018-12-24T06:15:21.968Z,16.07
2018-12-24T06:17:50.868Z,17.13
2018-12-24T06:20:19.654Z,16.60
2018-12-24T06:22:48.441Z,17.43
2018-12-24T06:25:17.197Z,18.63
2018-12-24T06:27:45.974Z,18.67
2018-12-24T06:30:14.695Z,15.50
2018-12-24T06:32:43.401Z,18.97
2018-12-24T06:35:12.574Z,17.70
2018-12-24T06:37:41.281Z,19.60
2018-12-24T06:40:10.153Z,22.30
2018-12-24T06:42:38.899Z,17.90
2018-12-24T06:45:07.725Z,18.97
2018-12-24T06:47:36.512Z,16.50
2018-12-24T06:50:05.813Z,15.37
2018-12-24T06:52:34.865Z,17.90
2018-12-24T06:55:03.671Z,16.07
2018-12-24T06:57:32.480Z,15.60
2018-12-24T07:00:01.378Z,16.87
2018-12-24T07:02:30.347Z,17.97
2018-12-24T07:04:59.146Z,14.43
2018-12-24T07:07:29.457Z,16.80
2018-12-24T07:09:58.336Z,13.53
2018-12-24T07:12:27.103Z,19.23
2018-12-24T07:14:55.895Z,15.97
2018-12-24T07:17:24.614Z,16.10
2018-12-24T07:19:53.565Z,14.27
2018-12-24T07:22:22.775Z,13.30
2018-12-24T07:24:51.459Z,14.90
2018-12-24T07:27:20.245Z,14.53
2018-12-24T07:29:49.060Z,19.13
2018-12-24T07:32:17.744Z,15.67
2018-12-24T07:34:46.492Z,15.20
2018-12-24T07:37:15.319Z,16.50
2018-12-24T07:39:43.999Z,15.07
2018-12-24T07:42:12.749Z,15.83
2018-12-24T07:44:41.711Z,13.60
2018-12-24T07:47:10.431Z,16.20
2018-12-24T07:49:39.513Z,13.30
2018-12-24T07:52:08.218Z,15.43
2018-12-24T07:54:36.905Z,13.83
2018-12-24T07:57:05.719Z,14.30
2018-12-24T07:59:34.810Z,14.07
2018-12-24T08:02:03.552Z,11.77
2018-12-24T08:04:32.586Z,11.70
2018-12-24T08:07:01.338Z,10.10
2018-12-24T08:09:30.159Z,10.20
2018-12-24T08:11:58.946Z,9.20
2018-12-24T08:14:33.045Z,7.70
2018-12-24T08:16:58.526Z,8.57
2018-12-24T08:19:27.456Z,10.27
2018-12-24T08:21:56.242Z,11.33
2018-12-24T08:24:24.999Z,11.77
2018-12-24T08:26:53.833Z,7.43
2018-12-24T08:29:22.688Z,5.93
2018-12-24T08:31:51.492Z,11.33
2018-12-24T08:34:20.175Z,6.10
2018-12-24T08:36:48.919Z,9.57
2018-12-24T08:39:17.856Z,8.97
2018-12-24T08:41:46.536Z,8.57
2018-12-24T08:44:15.425Z,7.63
2018-12-24T08:46:44.407Z,7.40
2018-12-24T08:49:13.614Z,8.50
2018-12-24T08:51:42.665Z,4.77
2018-12-24T08:54:11.758Z,6.17
2018-12-24T08:56:40.901Z,5.73
2018-12-24T08:59:09.643Z,5.20
2018-12-24T09:01:38.354Z,2.70
2018-12-24T09:04:07.099Z,4.27
2018-12-24T09:06:35.938Z,4.20
2018-12-24T09:09:06.423Z,6.83
2018-12-24T09:11:35.211Z,4.20
2018-12-24T09:14:04.040Z,6.37
2018-12-24T09:16:32.719Z,4.60
2018-12-24T09:19:03.293Z,10.97
2018-12-24T09:21:32.449Z,4.03
2018-12-24T09:24:01.543Z,4.30
2018-12-24T09:26:30.201Z,4.20
2018-12-24T09:28:58.899Z,2.83
2018-12-24T09:31:27.802Z,4.80
2018-12-24T09:33:56.449Z,5.60
2018-12-24T09:36:25.331Z,5.37
2018-12-24T09:38:54.162Z,3.57
2018-12-24T09:41:22.903Z,3.57
2018-12-24T09:43:51.596Z,7.17
2018-12-24T09:46:20.828Z,4.00
2018-12-24T09:48:49.614Z,4.27
2018-12-24T09:51:18.708Z,5.57
2018-12-24T09:53:47.907Z,6.20
2018-12-24T09:56:16.691Z,5.70
2018-12-24T09:58:45.436Z,7.63
2018-12-24T10:01:14.171Z,7.10
2018-12-24T10:03:43.471Z,6.70
2018-12-24T10:06:13.066Z,3.73
2018-12-24T10:08:41.765Z,7.33
2018-12-24T10:11:10.499Z,4.20
2018-12-24T10:13:39.634Z,6.40
2018-12-24T10:16:08.606Z,3.50
2018-12-24T10:18:37.717Z,3.57
2018-12-24T10:21:06.504Z,3.33
2018-12-24T10:23:35.246Z,4.87
2018-12-24T10:26:04.033Z,3.30
2018-12-24T10:28:32.864Z,3.83
2018-12-24T10:31:01.607Z,3.73
2018-12-24T10:33:30.318Z,3.40
2018-12-24T10:35:59.121Z,2.73
2018-12-24T10:38:27.908Z,1.83
2018-12-24T10:40:56.695Z,1.47
2018-12-24T10:43:25.583Z,6.13
2018-12-24T10:45:54.243Z,1.60
2018-12-24T10:48:23.361Z,2.30
2018-12-24T10:50:52.027Z,1.90
2018-12-24T10:53:20.792Z,4.23
2018-12-24T10:55:49.581Z,3.37
2018-12-24T10:58:18.408Z,3.40
2018-12-24T11:00:47.511Z,2.63
2018-12-24T11:03:16.139Z,3.40
2018-12-24T11:05:45.282Z,5.37
2018-12-24T11:08:14.064Z,3.20
2018-12-24T11:10:42.751Z,3.80
2018-12-24T11:13:11.491Z,4.63
2018-12-24T11:15:40.324Z,3.40
2018-12-24T11:18:09.130Z,5.47
2018-12-24T11:20:38.104Z,9.00
2018-12-24T11:23:06.946Z,4.30
2018-12-24T11:25:35.776Z,3.50
2018-12-24T11:28:04.566Z,3.80
2018-12-24T11:30:33.305Z,3.23
2018-12-24T11:33:02.096Z,8.50
2018-12-24T11:35:31.026Z,3.33
2018-12-24T11:38:00.005Z,2.50
2018-12-24T11:40:28.805Z,3.07
2018-12-24T11:42:57.458Z,2.97
2018-12-24T11:45:33.623Z,4.90
2018-12-24T11:47:56.597Z,5.70
2018-12-24T11:50:25.337Z,7.90
2018-12-24T11:52:54.030Z,4.83
2018-12-24T11:55:22.959Z,4.63
2018-12-24T11:57:51.934Z,7.40
2018-12-24T12:00:22.019Z,5.20
2018-12-24T12:02:51.041Z,5.90
2018-12-24T12:05:19.758Z,5.17
2018-12-24T12:07:48.487Z,5.50
2018-12-24T12:10:17.293Z,7.00
2018-12-24T12:12:46.691Z,9.20
2018-12-24T12:15:15.449Z,4.60
2018-12-24T12:17:44.361Z,11.33
2018-12-24T12:20:13.155Z,5.77
2018-12-24T12:22:41.852Z,3.60
2018-12-24T12:25:10.541Z,4.50
2018-12-24T12:27:39.336Z,4.23
2018-12-24T12:30:09.310Z,5.13
2018-12-24T12:32:38.017Z,7.93
2018-12-24T12:35:06.924Z,8.47
2018-12-24T12:37:35.712Z,8.47
2018-12-24T12:40:05.215Z,7.70
2018-12-24T12:42:34.004Z,5.50
2018-12-24T12:45:02.789Z,4.77
2018-12-24T12:47:31.462Z,5.80
2018-12-24T12:50:48.843Z,7.17
2018-12-24T12:53:17.438Z,6.03
2018-12-24T12:55:46.128Z,9.03
2018-12-24T12:58:14.852Z,10.50
2018-12-24T13:00:43.388Z,6.50
2018-12-24T13:03:11.991Z,4.10
2018-12-24T13:05:40.958Z,3.57
2018-12-24T13:08:09.746Z,3.33
2018-12-24T13:10:38.476Z,3.17
2018-12-24T13:13:07.233Z,4.93
2018-12-24T13:15:37.461Z,4.20
2018-12-24T13:18:06.658Z,3.17
2018-12-24T13:20:35.935Z,2.70
2018-12-24T13:23:04.663Z,3.30
2018-12-24T13:25:33.862Z,2.60
2018-12-24T13:28:02.803Z,2.33
2018-12-24T13:30:31.491Z,2.07
2018-12-24T13:33:00.220Z,3.87
2018-12-24T13:35:28.903Z,2.37
2018-12-24T13:37:57.896Z,2.07
2018-12-24T13:40:26.579Z,2.00
2018-12-24T13:42:55.674Z,3.67
2018-12-24T13:45:24.220Z,2.20
2018-12-24T13:47:52.818Z,4.20
2018-12-24T13:50:21.479Z,2.87
2018-12-24T13:52:50.206Z,2.87
2018-12-24T13:55:18.896Z,3.97
2018-12-24T13:57:47.985Z,5.40
2018-12-24T14:00:16.621Z,6.03
2018-12-24T14:02:45.227Z,2.57
2018-12-24T14:05:13.893Z,3.70
2018-12-24T14:07:42.802Z,4.50
2018-12-24T14:10:11.818Z,3.37
2018-12-24T14:12:40.364Z,4.30
2018-12-24T14:15:08.950Z,2.50
2018-12-24T14:17:38.074Z,4.70
2018-12-24T14:20:07.430Z,4.57
2018-12-24T14:22:36.158Z,2.93
2018-12-24T14:25:05.660Z,2.53
2018-12-24T14:27:34.709Z,4.00
2018-12-24T14:30:04.260Z,4.67
2018-12-24T14:32:32.943Z,6.67
2018-12-24T14:35:01.522Z,2.37
2018-12-24T14:37:30.165Z,3.73
2018-12-24T14:39:58.801Z,2.60
2018-12-24T14:42:27.385Z,2.67
2018-12-24T14:44:56.058Z,3.43
2018-12-24T14:47:24.742Z,2.83
2018-12-24T14:49:53.632Z,2.50
2018-12-24T14:52:22.725Z,2.43
2018-12-24T14:54:51.595Z,2.30
2018-12-24T14:57:20.479Z,3.13
2018-12-24T14:59:49.598Z,2.97
2018-12-24T15:02:18.592Z,4.00
2018-12-24T15:04:46.827Z,3.70
2018-12-24T15:07:15.755Z,4.27
2018-12-24T15:09:44.734Z,28.97
2018-12-24T15:12:13.331Z,3.20
2018-12-24T15:14:42.011Z,8.70
2018-12-24T15:17:10.695Z,5.80
2018-12-24T15:19:39.336Z,8.70
2018-12-24T15:22:08.024Z,10.90
2018-12-24T15:24:37.007Z,10.20
2018-12-24T15:27:05.924Z,8.70
2018-12-24T15:29:34.884Z,8.83
2018-12-24T15:32:03.926Z,5.63
2018-12-24T15:34:32.520Z,6.80
2018-12-24T15:37:01.154Z,5.77
2018-12-24T15:39:29.831Z,5.80
2018-12-24T15:41:58.971Z,3.43
2018-12-24T15:44:27.594Z,14.03
2018-12-24T15:46:56.340Z,3.90
2018-12-24T15:49:25.434Z,7.50
2018-12-24T15:51:54.299Z,5.03
2018-12-24T15:54:23.317Z,7.37
2018-12-24T15:56:51.999Z,9.10
2018-12-24T15:59:21.094Z,7.67
2018-12-24T16:01:50.084Z,8.57
2018-12-24T16:04:19.179Z,9.40
2018-12-24T16:06:47.862Z,5.60
2018-12-24T16:09:16.435Z,5.87
2018-12-24T16:11:45.083Z,8.83
2018-12-24T16:14:13.767Z,9.37
2018-12-24T16:16:50.809Z,13.17
2018-12-24T16:19:12.819Z,7.13
2018-12-24T16:21:41.561Z,6.70
2018-12-24T16:24:10.153Z,8.77
2018-12-24T16:26:38.826Z,6.83
2018-12-24T16:29:07.737Z,7.83
2018-12-24T16:31:36.399Z,6.50
2018-12-24T16:34:05.320Z,8.60
2018-12-24T16:36:34.081Z,5.87
2018-12-24T16:39:03.725Z,7.00
2018-12-24T16:41:32.412Z,7.63
2018-12-24T16:44:01.361Z,12.57
2018-12-24T16:46:29.974Z,9.93
2018-12-24T16:48:58.875Z,9.07
2018-12-24T16:51:27.469Z,10.50
2018-12-24T16:53:56.122Z,8.50
2018-12-24T16:56:24.984Z,11.43
2018-12-24T16:58:53.713Z,8.23
2018-12-24T17:01:22.351Z,8.17
2018-12-24T17:03:51.083Z,8.33
2018-12-24T17:06:19.722Z,11.30
2018-12-24T17:08:48.320Z,12.20
2018-12-24T17:11:28.930Z,11.37
2018-12-24T17:13:57.597Z,10.57
2018-12-24T17:16:26.336Z,19.00
2018-12-24T17:18:55.555Z,17.70
2018-12-24T17:21:24.555Z,16.57
2018-12-24T17:23:53.254Z,10.67
2018-12-24T17:26:22.246Z,11.00
2018-12-24T17:28:50.882Z,12.83
2018-12-24T17:31:19.617Z,16.73
2018-12-24T17:33:48.161Z,24.40
2018-12-24T17:36:18.408Z,15.07
2018-12-24T17:38:47.056Z,14.60
2018-12-24T17:41:15.699Z,10.57
2018-12-24T17:43:44.732Z,11.13
2018-12-24T17:46:13.462Z,12.10
2018-12-24T17:48:42.011Z,18.90
2018-12-24T17:51:10.888Z,15.00
2018-12-24T17:53:39.515Z,19.40
2018-12-24T17:56:08.201Z,23.53
2018-12-24T17:58:36.884Z,17.83
2018-12-24T18:01:05.569Z,12.77
2018-12-24T18:03:34.123Z,14.10
2018-12-24T18:06:02.788Z,13.63
2018-12-24T18:08:31.578Z,13.23
2018-12-24T18:11:00.696Z,12.40
2018-12-24T18:13:29.280Z,13.70
2018-12-24T18:15:59.234Z,22.60
2018-12-24T18:18:27.997Z,14.10
2018-12-24T18:20:56.679Z,20.00
2018-12-24T18:23:25.552Z,16.23
2018-12-24T18:25:54.240Z,15.87
2018-12-24T18:28:23.301Z,16.57
2018-12-24T18:30:52.338Z,15.60
2018-12-24T18:33:21.025Z,20.40
2018-12-24T18:35:50.117Z,16.43
2018-12-24T18:38:18.998Z,14.33
2018-12-24T18:40:47.691Z,17.40
2018-12-24T18:43:16.790Z,14.17
2018-12-24T18:45:45.423Z,16.13
2018-12-24T18:48:14.109Z,14.00
2018-12-24T18:50:42.697Z,12.17
2018-12-24T18:53:11.827Z,10.67
2018-12-24T18:55:40.513Z,15.57
2018-12-24T18:58:09.151Z,11.40
2018-12-24T19:00:38.187Z,19.67
2018-12-24T19:03:07.153Z,18.30
2018-12-24T19:05:36.169Z,16.17
2018-12-24T19:08:04.858Z,13.50
2018-12-24T19:10:34.668Z,18.60
2018-12-24T19:13:03.349Z,14.30
2018-12-24T19:15:32.238Z,13.47
2018-12-24T19:18:00.981Z,11.70
2018-12-24T19:20:29.897Z,16.43
2018-12-24T19:22:59.592Z,12.20
2018-12-24T19:25:28.494Z,11.30
2018-12-24T19:27:57.150Z,15.00
2018-12-24T19:30:25.875Z,13.43
2018-12-24T19:32:54.871Z,13.77
2018-12-24T19:35:23.463Z,16.03
2018-12-24T19:37:52.138Z,17.50
2018-12-24T19:40:20.702Z,19.93
2018-12-24T19:42:49.403Z,18.80
2018-12-24T19:45:18.088Z,24.13
2018-12-24T19:47:49.975Z,16.77
2018-12-24T19:50:16.928Z,15.13
2018-12-24T19:52:45.518Z,13.50
2018-12-24T19:55:14.259Z,15.73
2018-12-24T19:57:42.943Z,15.07
2018-12-24T20:00:11.584Z,14.50
2018-12-24T20:02:40.311Z,15.23
2018-12-24T20:05:09.102Z,24.33
2018-12-24T20:07:37.783Z,17.50
2018-12-24T20:10:07.829Z,21.60
2018-12-24T20:12:36.446Z,15.00
2018-12-24T20:15:05.943Z,19.67
2018-12-24T20:17:34.528Z,23.60
2018-12-24T20:20:03.357Z,21.33
2018-12-24T20:22:32.039Z,18.83
2018-12-24T20:25:00.725Z,17.60
2018-12-24T20:27:29.304Z,14.97
2018-12-24T20:29:57.894Z,16.05
2018-12-24T20:32:26.581Z,16.30
2018-12-24T20:34:55.211Z,20.70
2018-12-24T20:37:23.941Z,19.00
2018-12-24T20:39:52.495Z,19.57
2018-12-24T20:42:21.165Z,17.85
2018-12-24T20:44:49.890Z,18.43
2018-12-24T20:47:19.539Z,14.20
2018-12-24T20:49:48.591Z,16.30
2018-12-24T20:52:17.274Z,17.02
2018-12-24T20:54:45.851Z,19.50
2018-12-24T20:57:14.613Z,18.80
2018-12-24T20:59:43.191Z,16.53
2018-12-24T21:02:12.011Z,17.70
2018-12-24T21:04:40.553Z,18.70
2018-12-24T21:07:09.236Z,18.10
2018-12-24T21:09:38.021Z,18.80
2018-12-24T21:12:07.056Z,18.40
2018-12-24T21:14:36.055Z,19.33
2018-12-24T21:17:05.243Z,16.60
2018-12-24T21:19:33.929Z,21.17
2018-12-24T21:22:02.921Z,21.90
2018-12-24T21:24:31.605Z,19.97
2018-12-24T21:27:00.247Z,21.00
2018-12-24T21:29:29.980Z,20.13
2018-12-24T21:31:59.193Z,20.90
2018-12-24T21:34:27.837Z,26.40
2018-12-24T21:36:56.561Z,24.80
2018-12-24T21:39:25.168Z,21.50
2018-12-24T21:41:53.827Z,21.50
2018-12-24T21:44:22.468Z,16.90
2018-12-24T21:46:51.153Z,18.83
2018-12-24T21:49:19.763Z,15.43
2018-12-24T21:51:48.422Z,14.40
2018-12-24T21:54:17.148Z,18.50
2018-12-24T21:56:45.832Z,18.90
2018-12-24T21:59:14.473Z,21.20
2018-12-24T22:01:43.084Z,21.93
2018-12-24T22:04:11.841Z,20.80
2018-12-24T22:06:40.525Z,15.40
2018-12-24T22:09:09.150Z,20.03
2018-12-24T22:11:38.200Z,19.57
2018-12-24T22:14:06.783Z,19.30
2018-12-24T22:16:35.509Z,24.77
2018-12-24T22:19:04.603Z,18.27
2018-12-24T22:21:33.599Z,17.83
2018-12-24T22:24:02.236Z,19.40
2018-12-24T22:26:31.328Z,16.00
2018-12-24T22:29:00.364Z,17.33
2018-12-24T22:31:29.049Z,17.30
2018-12-24T22:33:59.400Z,17.67
2018-12-24T22:36:28.007Z,18.97
2018-12-24T22:38:56.596Z,18.10
2018-12-24T22:41:25.198Z,13.87
2018-12-24T22:43:53.902Z,17.13
2018-12-24T22:46:22.543Z,14.00
2018-12-24T22:48:51.457Z,24.10
2018-12-24T22:51:20.569Z,26.63
2018-12-24T22:53:49.214Z,21.23
2018-12-24T22:56:17.834Z,21.70
2018-12-24T22:58:46.422Z,19.83
2018-12-24T23:01:15.525Z,17.63
2018-12-24T23:03:44.504Z,24.93
2018-12-24T23:06:13.086Z,19.53
2018-12-24T23:08:41.728Z,18.27
2018-12-24T23:11:10.527Z,16.23
2018-12-24T23:13:39.503Z,16.47
2018-12-24T23:16:08.232Z,14.27
2018-12-24T23:18:36.916Z,13.20
2018-12-24T23:21:05.702Z,12.97
2018-12-24T23:23:34.391Z,13.90
2018-12-24T23:26:02.942Z,11.47
2018-12-24T23:28:32.062Z,14.87
2018-12-24T23:31:00.701Z,13.00
2018-12-24T23:33:29.315Z,11.37
2018-12-24T23:35:58.019Z,12.10
2018-12-24T23:38:26.578Z,9.40
2018-12-24T23:40:55.281Z,15.60
2018-12-24T23:43:23.881Z,11.57
2018-12-24T23:45:52.474Z,16.17
2018-12-24T23:48:21.232Z,12.77
2018-12-24T23:50:50.100Z,9.50
2018-12-24T23:53:18.708Z,9.40
2018-12-24T23:55:47.794Z,12.30
2018-12-24T23:58:16.482Z,14.93
